createdAt,value
2023-03-15T00:01:18.859Z,1.95
2023-03-15T00:03:50.920Z,1.52
2023-03-15T00:06:23.114Z,1.75
2023-03-15T00:08:55.115Z,1.77
2023-03-15T00:11:27.234Z,2.03
2023-03-15T00:13:59.419Z,1.70
2023-03-15T00:16:32.995Z,1.42
2023-03-15T00:19:05.207Z,1.75
2023-03-15T00:21:37.492Z,1.20
2023-03-15T00:24:11.684Z,1.27
2023-03-15T00:26:43.736Z,1.35
2023-03-15T00:29:16.029Z,1.40
2023-03-15T00:31:48.345Z,0.90
2023-03-15T00:34:24.627Z,1.63
2023-03-15T00:36:57.844Z,0.80
2023-03-15T00:39:29.996Z,1.80
2023-03-15T00:42:02.137Z,1.90
2023-03-15T00:44:34.265Z,1.98
2023-03-15T00:47:06.345Z,3.10
2023-03-15T00:49:39.154Z,2.10
2023-03-15T00:54:55.120Z,2.17
2023-03-15T00:57:27.614Z,2.20
2023-03-15T01:00:00.051Z,2.63
2023-03-15T01:02:32.700Z,2.53
2023-03-15T01:05:07.087Z,2.70
2023-03-15T01:07:39.326Z,2.72
2023-03-15T01:10:13.243Z,2.70
2023-03-15T01:12:45.412Z,2.35
2023-03-15T01:15:17.725Z,2.38
2023-03-15T01:17:49.976Z,2.33
2023-03-15T01:20:22.809Z,1.75
2023-03-15T01:22:54.919Z,1.70
2023-03-15T01:25:27.081Z,1.80
2023-03-15T01:27:59.342Z,1.90
2023-03-15T01:30:31.471Z,1.48
2023-03-15T01:33:03.558Z,1.75
2023-03-15T01:35:35.882Z,1.80
2023-03-15T01:38:08.170Z,1.60
2023-03-15T01:40:46.236Z,1.70
2023-03-15T01:43:25.221Z,1.65
2023-03-15T01:45:59.705Z,2.33
2023-03-15T01:48:44.914Z,1.40
2023-03-15T01:51:27.200Z,4.63
2023-03-15T01:54:16.954Z,1.50
2023-03-15T01:57:06.122Z,1.60
2023-03-15T02:00:02.512Z,1.80
2023-03-15T02:02:53.406Z,1.90
2023-03-15T02:05:34.155Z,2.03
2023-03-15T02:08:09.653Z,2.15
2023-03-15T02:10:48.177Z,1.80
2023-03-15T02:13:23.578Z,1.98
2023-03-15T02:15:57.565Z,2.17
2023-03-15T02:18:37.778Z,2.70
2023-03-15T02:21:22.271Z,1.80
2023-03-15T02:24:26.096Z,1.77
2023-03-15T02:26:58.652Z,2.15
2023-03-15T02:29:31.045Z,2.13
2023-03-15T02:32:04.803Z,2.63
2023-03-15T02:34:36.924Z,2.38
2023-03-15T02:37:09.595Z,2.35
2023-03-15T02:39:41.636Z,2.20
2023-03-15T02:42:14.232Z,2.25
2023-03-15T02:44:48.692Z,2.50
2023-03-15T02:47:33.028Z,2.25
2023-03-15T02:50:08.000Z,2.85
2023-03-15T02:52:40.510Z,2.70
2023-03-15T02:55:12.788Z,2.60
2023-03-15T02:57:45.219Z,3.38
2023-03-15T03:00:17.617Z,3.33
2023-03-15T03:02:49.835Z,2.92
2023-03-15T03:05:22.358Z,4.00
2023-03-15T03:07:55.241Z,3.03
2023-03-15T03:10:27.424Z,3.92
2023-03-15T03:13:02.982Z,3.53
2023-03-15T03:15:39.001Z,3.80
2023-03-15T03:18:11.166Z,2.90
2023-03-15T03:20:46.188Z,3.97
2023-03-15T03:23:18.313Z,2.97
2023-03-15T03:25:50.825Z,3.27
2023-03-15T03:28:28.039Z,3.10
2023-03-15T03:31:00.795Z,3.38
2023-03-15T03:33:33.766Z,4.07
2023-03-15T03:36:06.506Z,3.42
2023-03-15T03:38:43.579Z,5.87
2023-03-15T03:41:16.042Z,3.75
2023-03-15T03:43:48.321Z,3.15
2023-03-15T03:46:23.702Z,3.72
2023-03-15T03:48:58.697Z,3.55
2023-03-15T03:51:34.446Z,3.03
2023-03-15T03:54:06.552Z,3.15
2023-03-15T03:56:39.810Z,4.18
2023-03-15T03:59:11.901Z,3.05
2023-03-15T04:01:54.294Z,3.28
2023-03-15T04:04:26.517Z,3.60
2023-03-15T04:06:59.403Z,4.05
2023-03-15T04:09:37.895Z,4.30
2023-03-15T04:14:46.016Z,3.72
2023-03-15T04:17:19.929Z,4.00
2023-03-15T04:19:51.985Z,4.43
2023-03-15T04:22:30.095Z,3.95
2023-03-15T04:25:02.846Z,3.50
2023-03-15T04:27:58.712Z,3.63
2023-03-15T04:30:51.386Z,4.35
2023-03-15T04:33:38.910Z,4.28
2023-03-15T04:36:24.026Z,4.30
2023-03-15T04:39:21.321Z,4.00
2023-03-15T04:42:02.832Z,3.70
2023-03-15T04:44:44.808Z,3.35
2023-03-15T04:50:46.095Z,4.55
2023-03-15T04:53:26.488Z,3.47
2023-03-15T04:56:09.525Z,3.63
2023-03-15T04:59:17.293Z,3.88
2023-03-15T05:02:18.257Z,3.78
2023-03-15T05:05:26.188Z,4.00
2023-03-15T05:08:06.109Z,4.93
2023-03-15T05:11:07.236Z,4.55
2023-03-15T05:13:53.518Z,5.03
2023-03-15T05:16:56.043Z,5.40
2023-03-15T05:19:46.246Z,5.57
2023-03-15T05:22:38.031Z,5.05
2023-03-15T05:25:16.166Z,4.65
2023-03-15T05:28:06.837Z,5.05
2023-03-15T05:30:47.025Z,6.00
2023-03-15T05:33:33.488Z,6.03
2023-03-15T05:36:35.010Z,6.25
2023-03-15T05:39:19.703Z,5.55
2023-03-15T05:42:08.623Z,6.28
2023-03-15T05:45:19.201Z,5.85
2023-03-15T05:48:00.481Z,5.32
2023-03-15T05:50:58.780Z,5.53
2023-03-15T05:53:49.212Z,5.40
2023-03-15T05:56:34.893Z,5.60
2023-03-15T05:59:24.001Z,6.25
2023-03-15T06:02:12.484Z,5.55
2023-03-15T06:04:52.347Z,5.88
2023-03-15T06:07:28.485Z,5.78
2023-03-15T06:10:00.944Z,6.03
2023-03-15T06:12:33.274Z,6.25
2023-03-15T06:15:07.299Z,6.28
2023-03-15T06:17:39.905Z,5.97
2023-03-15T06:20:13.227Z,6.72
2023-03-15T06:22:45.984Z,4.40
2023-03-15T06:25:31.851Z,5.43
2023-03-15T06:28:04.066Z,5.07
2023-03-15T06:30:37.284Z,5.18
2023-03-15T06:33:10.117Z,6.13
2023-03-15T06:35:42.906Z,5.37
2023-03-15T06:38:15.412Z,5.83
2023-03-15T06:40:47.713Z,5.35
2023-03-15T06:43:19.874Z,7.13
2023-03-15T06:45:53.923Z,6.33
2023-03-15T06:48:27.612Z,5.75
2023-03-15T06:51:00.200Z,5.90
2023-03-15T06:53:32.405Z,6.82
2023-03-15T06:56:05.011Z,6.07
2023-03-15T06:58:37.105Z,6.38
2023-03-15T07:01:14.034Z,7.13
2023-03-15T07:03:46.202Z,7.43
2023-03-15T07:06:18.239Z,6.80
2023-03-15T07:08:50.292Z,7.30
2023-03-15T07:11:22.471Z,7.38
2023-03-15T07:13:55.153Z,7.67
2023-03-15T07:16:27.938Z,7.57
2023-03-15T07:19:00.824Z,8.55
2023-03-15T07:21:33.212Z,9.05
2023-03-15T07:24:05.726Z,8.38
2023-03-15T07:26:38.030Z,8.73
2023-03-15T07:29:10.419Z,8.25
2023-03-15T07:31:42.771Z,9.05
2023-03-15T07:34:14.803Z,8.88
2023-03-15T07:36:47.040Z,8.98
2023-03-15T07:39:19.378Z,8.70
2023-03-15T07:41:53.411Z,8.93
2023-03-15T07:44:29.769Z,8.40
2023-03-15T07:47:01.823Z,8.70
2023-03-15T07:49:34.734Z,7.82
2023-03-15T07:52:07.279Z,8.77
2023-03-15T07:54:39.588Z,9.05
2023-03-15T07:57:11.868Z,8.82
2023-03-15T07:59:44.846Z,8.55
2023-03-15T08:02:16.931Z,9.30
2023-03-15T08:04:51.218Z,9.77
2023-03-15T08:07:23.293Z,8.77
2023-03-15T08:09:58.011Z,8.55
2023-03-15T08:12:31.030Z,8.88
2023-03-15T08:15:03.293Z,8.60
2023-03-15T08:17:35.548Z,8.32
2023-03-15T08:20:14.585Z,9.45
2023-03-15T08:22:49.015Z,9.50
2023-03-15T08:25:23.979Z,9.82
2023-03-15T08:27:56.297Z,8.27
2023-03-15T08:30:28.607Z,8.88
2023-03-15T08:33:01.238Z,8.10
2023-03-15T08:35:34.470Z,7.32
2023-03-15T08:38:07.340Z,9.35
2023-03-15T08:40:41.048Z,8.18
2023-03-15T08:43:13.086Z,7.78
2023-03-15T08:46:00.250Z,9.15
2023-03-15T08:48:33.016Z,7.45
2023-03-15T08:51:07.057Z,6.38
2023-03-15T08:53:40.010Z,6.57
2023-03-15T08:56:12.202Z,7.05
2023-03-15T08:58:44.990Z,7.50
2023-03-15T09:01:17.243Z,7.75
2023-03-15T09:03:51.053Z,6.13
2023-03-15T09:06:23.101Z,5.93
2023-03-15T09:08:55.636Z,4.85
2023-03-15T09:11:27.679Z,6.60
2023-03-15T09:14:00.414Z,5.53
2023-03-15T09:16:32.791Z,6.93
2023-03-15T09:19:05.355Z,5.25
2023-03-15T09:21:37.532Z,5.97
2023-03-15T09:24:09.635Z,5.97
2023-03-15T09:26:41.842Z,6.55
2023-03-15T09:29:14.247Z,6.57
2023-03-15T09:31:46.329Z,6.85
2023-03-15T09:34:18.407Z,7.43
2023-03-15T09:36:53.178Z,7.75
2023-03-15T09:39:25.844Z,6.68
2023-03-15T09:42:01.262Z,7.13
2023-03-15T09:44:58.320Z,6.78
2023-03-15T09:48:00.328Z,6.53
2023-03-15T09:50:49.897Z,7.28
2023-03-15T09:53:34.575Z,5.47
2023-03-15T09:56:36.748Z,6.50
2023-03-15T09:59:10.816Z,5.82
2023-03-15T10:01:43.850Z,6.15
2023-03-15T10:04:30.035Z,6.43
2023-03-15T10:07:04.101Z,7.88
2023-03-15T10:09:36.134Z,6.32
2023-03-15T10:12:41.685Z,5.38
2023-03-15T10:15:21.440Z,5.43
2023-03-15T10:18:00.190Z,5.35
2023-03-15T10:20:45.433Z,4.80
2023-03-15T10:23:29.904Z,4.85
2023-03-15T10:26:06.353Z,6.22
2023-03-15T10:28:39.527Z,5.28
2023-03-15T10:31:22.593Z,4.90
2023-03-15T10:34:01.626Z,4.28
2023-03-15T10:36:33.881Z,4.90
2023-03-15T10:39:05.982Z,4.57
2023-03-15T10:41:39.717Z,4.35
2023-03-15T10:44:25.027Z,4.45
2023-03-15T10:47:21.599Z,4.03
2023-03-15T10:49:59.818Z,3.80
2023-03-15T10:52:36.996Z,3.72
2023-03-15T10:55:26.123Z,4.00
2023-03-15T10:58:02.671Z,3.88
2023-03-15T11:00:36.834Z,4.15
2023-03-15T11:03:21.775Z,3.88
2023-03-15T11:05:57.196Z,3.95
2023-03-15T11:08:41.283Z,3.70
2023-03-15T11:11:13.335Z,2.97
2023-03-15T11:14:00.651Z,4.32
2023-03-15T11:16:38.176Z,3.53
2023-03-15T11:19:18.087Z,3.60
2023-03-15T11:21:51.499Z,3.28
2023-03-15T11:24:31.247Z,2.72
2023-03-15T11:27:11.250Z,3.13
2023-03-15T11:29:52.914Z,2.67
2023-03-15T11:32:27.846Z,3.15
2023-03-15T11:35:07.868Z,3.00
2023-03-15T11:37:53.810Z,3.22
2023-03-15T11:40:38.741Z,2.85
2023-03-15T11:43:16.453Z,2.80
2023-03-15T11:45:58.046Z,2.58
2023-03-15T11:49:13.471Z,2.45
2023-03-15T11:51:45.848Z,2.40
2023-03-15T11:54:21.152Z,2.00
2023-03-15T11:57:04.719Z,2.40
2023-03-15T11:59:47.241Z,3.47
2023-03-15T12:02:25.216Z,4.15
2023-03-15T12:05:09.258Z,3.78
2023-03-15T12:08:00.767Z,3.95
2023-03-15T12:10:34.909Z,2.28
2023-03-15T12:13:18.096Z,2.08
2023-03-15T12:15:51.318Z,1.92
2023-03-15T12:21:21.433Z,1.73
2023-03-15T12:24:05.370Z,2.00
2023-03-15T12:27:04.803Z,2.30
2023-03-15T12:29:38.351Z,1.70
2023-03-15T12:32:16.682Z,2.08
2023-03-15T12:34:53.395Z,1.88
2023-03-15T12:37:42.443Z,1.63
2023-03-15T12:40:20.661Z,1.63
2023-03-15T12:42:57.432Z,1.67
2023-03-15T12:45:37.485Z,1.90
2023-03-15T12:48:13.023Z,2.05
2023-03-15T12:50:45.768Z,1.80
2023-03-15T12:53:37.201Z,2.10
2023-03-15T12:56:36.088Z,1.90
2023-03-15T12:59:29.436Z,2.33
2023-03-15T13:02:03.911Z,1.87
2023-03-15T13:04:36.808Z,2.40
2023-03-15T13:07:48.926Z,2.10
2023-03-15T13:10:53.365Z,3.73
2023-03-15T13:13:33.838Z,5.55
2023-03-15T13:16:24.741Z,4.47
2023-03-15T13:19:12.175Z,2.17
2023-03-15T13:21:52.975Z,1.45
2023-03-15T13:24:43.895Z,1.50
2023-03-15T13:27:38.341Z,1.77
2023-03-15T13:30:48.906Z,1.80
2023-03-15T13:33:28.343Z,1.30
2023-03-15T13:36:01.829Z,3.08
2023-03-15T13:38:43.532Z,2.10
2023-03-15T13:41:31.285Z,2.00
2023-03-15T13:44:13.857Z,2.53
2023-03-15T13:46:49.358Z,1.63
2023-03-15T13:49:22.032Z,1.42
2023-03-15T13:51:54.383Z,3.25
2023-03-15T13:54:31.932Z,2.05
2023-03-15T13:57:13.632Z,2.35
2023-03-15T13:59:48.021Z,1.77
2023-03-15T14:02:48.126Z,2.33
2023-03-15T14:05:28.987Z,1.50
2023-03-15T14:08:04.139Z,1.50
2023-03-15T14:10:38.743Z,1.50
2023-03-15T14:13:27.649Z,1.45
2023-03-15T14:16:08.226Z,1.33
2023-03-15T14:18:41.732Z,1.40
2023-03-15T14:23:51.792Z,1.90
2023-03-15T14:26:28.247Z,1.58
2023-03-15T14:29:16.740Z,1.50
2023-03-15T14:31:51.619Z,1.75
2023-03-15T14:34:35.070Z,1.50
2023-03-15T14:37:25.140Z,1.65
2023-03-15T14:40:09.196Z,1.50
2023-03-15T14:42:41.633Z,1.70
2023-03-15T14:45:16.236Z,1.67
2023-03-15T14:47:58.546Z,2.30
2023-03-15T14:50:35.416Z,2.00
2023-03-15T14:53:10.080Z,1.85
2023-03-15T14:55:42.566Z,1.50
2023-03-15T14:58:17.522Z,1.83
2023-03-15T15:00:53.960Z,2.15
2023-03-15T15:03:46.406Z,1.80
2023-03-15T15:06:18.528Z,1.83
2023-03-15T15:08:55.587Z,1.67
2023-03-15T15:11:27.932Z,1.67
2023-03-15T15:14:00.191Z,1.85
2023-03-15T15:16:32.769Z,1.65
2023-03-15T15:19:06.173Z,1.42
2023-03-15T15:21:39.030Z,1.98
2023-03-15T15:24:20.287Z,1.40
2023-03-15T15:26:53.340Z,1.63
2023-03-15T15:29:25.396Z,1.40
2023-03-15T15:31:57.978Z,1.52
2023-03-15T15:34:30.310Z,1.30
2023-03-15T15:37:02.390Z,1.73
2023-03-15T15:39:34.514Z,1.50
2023-03-15T15:42:09.223Z,2.92
2023-03-15T15:44:41.943Z,2.33
2023-03-15T15:47:14.422Z,1.60
2023-03-15T15:49:46.703Z,2.08
2023-03-15T15:52:18.801Z,2.42
2023-03-15T15:54:50.924Z,2.38
2023-03-15T15:57:26.689Z,2.80
2023-03-15T15:59:58.730Z,2.58
2023-03-15T16:02:30.798Z,2.72
2023-03-15T16:05:03.079Z,2.10
2023-03-15T16:07:35.861Z,1.58
2023-03-15T16:10:16.210Z,2.17
2023-03-15T16:12:49.663Z,1.45
2023-03-15T16:15:22.125Z,1.83
2023-03-15T16:17:54.258Z,1.98
2023-03-15T16:20:26.300Z,1.73
2023-03-15T16:23:00.581Z,1.70
2023-03-15T16:25:36.084Z,1.90
2023-03-15T16:28:11.484Z,2.25
2023-03-15T16:30:46.542Z,4.07
2023-03-15T16:33:21.224Z,2.70
2023-03-15T16:35:53.699Z,2.47
2023-03-15T16:38:30.091Z,2.30
2023-03-15T16:41:02.474Z,2.53
2023-03-15T16:43:34.705Z,2.35
2023-03-15T16:46:14.036Z,2.45
2023-03-15T16:48:46.772Z,2.20
2023-03-15T16:51:19.190Z,2.40
2023-03-15T16:53:52.665Z,2.15
2023-03-15T16:56:30.479Z,2.60
2023-03-15T16:59:04.861Z,2.47
2023-03-15T17:01:37.682Z,2.65
2023-03-15T17:04:11.418Z,2.37
2023-03-15T17:06:48.542Z,2.67
2023-03-15T17:09:23.451Z,2.55
2023-03-15T17:11:56.378Z,2.50
2023-03-15T17:14:34.780Z,3.60
2023-03-15T17:17:08.648Z,3.63
2023-03-15T17:19:41.370Z,3.67
2023-03-15T17:22:13.995Z,3.80
2023-03-15T17:24:47.315Z,3.90
2023-03-15T17:27:27.408Z,4.57
2023-03-15T17:29:59.802Z,4.18
2023-03-15T17:32:32.137Z,4.30
2023-03-15T17:35:04.567Z,4.13
2023-03-15T17:37:38.760Z,3.27
2023-03-15T17:40:23.365Z,2.90
2023-03-15T17:42:58.252Z,2.70
2023-03-15T17:45:34.743Z,2.42
2023-03-15T17:48:07.330Z,2.72
2023-03-15T17:50:44.428Z,2.75
2023-03-15T17:53:18.894Z,2.80
2023-03-15T17:55:53.843Z,2.35
2023-03-15T17:58:27.469Z,2.88
2023-03-15T18:01:00.149Z,2.45
2023-03-15T18:03:32.432Z,2.67
2023-03-15T18:06:05.453Z,2.83
2023-03-15T18:08:37.659Z,3.42
2023-03-15T18:11:22.389Z,2.97
2023-03-15T18:13:55.273Z,3.55
2023-03-15T18:16:27.433Z,3.40
2023-03-15T18:18:59.648Z,3.00
2023-03-15T18:21:32.421Z,3.08
2023-03-15T18:24:05.101Z,4.30
2023-03-15T18:26:37.281Z,3.60
2023-03-15T18:29:09.286Z,3.50
2023-03-15T18:31:43.308Z,4.55
2023-03-15T18:34:17.268Z,3.92
2023-03-15T18:36:50.285Z,3.97
2023-03-15T18:39:25.371Z,3.58
2023-03-15T18:41:57.538Z,3.13
2023-03-15T18:44:29.839Z,3.42
2023-03-15T18:47:02.531Z,3.10
2023-03-15T18:49:35.653Z,4.10
2023-03-15T18:52:07.857Z,3.45
2023-03-15T18:54:40.042Z,3.00
2023-03-15T18:57:12.313Z,3.45
2023-03-15T18:59:44.394Z,3.65
2023-03-15T19:02:16.635Z,4.32
2023-03-15T19:04:48.657Z,4.32
2023-03-15T19:07:20.711Z,4.35
2023-03-15T19:09:52.725Z,4.53
2023-03-15T19:12:25.198Z,5.95
2023-03-15T19:14:57.451Z,4.85
2023-03-15T19:17:29.655Z,4.90
2023-03-15T19:20:02.123Z,4.68
2023-03-15T19:22:34.672Z,4.95
2023-03-15T19:25:08.707Z,6.20
2023-03-15T19:27:42.891Z,5.95
2023-03-15T19:30:18.046Z,5.60
2023-03-15T19:32:51.227Z,5.55
2023-03-15T19:35:23.642Z,6.07
2023-03-15T19:37:57.190Z,6.70
2023-03-15T19:43:01.857Z,6.13
2023-03-15T19:45:33.934Z,5.97
2023-03-15T19:48:06.267Z,6.78
2023-03-15T19:50:38.535Z,6.35
2023-03-15T19:53:12.248Z,5.47
2023-03-15T19:55:44.383Z,5.45
2023-03-15T19:58:17.760Z,4.55
2023-03-15T20:00:52.618Z,4.40
2023-03-15T20:03:25.583Z,7.40
2023-03-15T20:06:03.136Z,6.60
2023-03-15T20:08:35.480Z,6.28
2023-03-15T20:11:08.633Z,6.20
2023-03-15T20:13:41.026Z,6.13
2023-03-15T20:16:13.504Z,5.55
2023-03-15T20:18:46.948Z,5.45
2023-03-15T20:21:19.921Z,5.57
2023-03-15T20:23:52.588Z,6.78
2023-03-15T20:26:26.877Z,5.53
2023-03-15T20:28:59.276Z,5.50
2023-03-15T20:31:31.612Z,5.22
2023-03-15T20:34:07.858Z,6.38
2023-03-15T20:36:40.486Z,6.25
2023-03-15T20:39:13.131Z,10.00
2023-03-15T20:41:45.875Z,6.40
2023-03-15T20:44:19.652Z,5.55
2023-03-15T20:46:55.074Z,4.70
2023-03-15T20:49:29.356Z,4.72
2023-03-15T20:52:02.225Z,5.03
2023-03-15T20:54:34.402Z,6.50
2023-03-15T20:57:07.350Z,11.02
2023-03-15T20:59:40.278Z,14.77
2023-03-15T21:02:12.743Z,16.67
2023-03-15T21:04:44.869Z,19.33
2023-03-15T21:07:17.554Z,17.83
2023-03-15T21:09:50.007Z,48.70
2023-03-15T21:12:22.428Z,19.98
2023-03-15T21:14:54.518Z,9.27
2023-03-15T21:17:26.524Z,11.93
2023-03-15T21:19:58.679Z,8.32
2023-03-15T21:22:30.921Z,7.82
2023-03-15T21:25:03.704Z,9.95
2023-03-15T21:27:35.883Z,24.50
2023-03-15T21:30:08.894Z,18.50
2023-03-15T21:32:42.410Z,13.57
2023-03-15T21:35:14.715Z,15.18
2023-03-15T21:37:46.833Z,19.40
2023-03-15T21:40:18.868Z,31.83
2023-03-15T21:42:51.000Z,16.25
2023-03-15T21:45:23.256Z,14.80
2023-03-15T21:47:55.380Z,34.08
2023-03-15T21:50:27.677Z,36.30
2023-03-15T21:52:59.958Z,24.88
2023-03-15T21:55:33.775Z,24.85
2023-03-15T21:58:06.439Z,12.65
2023-03-15T22:00:38.723Z,11.43
2023-03-15T22:03:13.577Z,10.82
2023-03-15T22:05:46.605Z,10.50
2023-03-15T22:08:19.188Z,9.93
2023-03-15T22:10:55.222Z,14.80
2023-03-15T22:13:27.414Z,11.35
2023-03-15T22:15:59.646Z,12.50
2023-03-15T22:18:32.224Z,11.52
2023-03-15T22:21:04.723Z,11.43
2023-03-15T22:23:37.149Z,9.95
2023-03-15T22:26:09.911Z,11.10
2023-03-15T22:28:42.594Z,10.52
2023-03-15T22:31:14.840Z,12.67
2023-03-15T22:33:47.238Z,18.05
2023-03-15T22:36:19.253Z,31.55
2023-03-15T22:38:52.292Z,28.27
2023-03-15T22:41:24.483Z,21.92
2023-03-15T22:43:56.537Z,22.00
2023-03-15T22:46:34.875Z,20.97
2023-03-15T22:49:07.099Z,15.20
2023-03-15T22:51:41.144Z,11.90
2023-03-15T22:54:13.239Z,12.82
2023-03-15T22:56:45.584Z,13.65
2023-03-15T22:59:18.067Z,9.43
2023-03-15T23:01:50.370Z,10.73
2023-03-15T23:04:22.583Z,11.82
2023-03-15T23:06:55.164Z,10.10
2023-03-15T23:09:27.186Z,10.00
2023-03-15T23:11:59.755Z,10.00
2023-03-15T23:14:32.145Z,9.10
2023-03-15T23:17:04.588Z,9.13
2023-03-15T23:19:36.690Z,9.63
2023-03-15T23:22:09.201Z,9.52
2023-03-15T23:24:41.241Z,9.07
2023-03-15T23:27:13.325Z,8.63
2023-03-15T23:29:54.072Z,9.52
2023-03-15T23:32:27.784Z,9.23
2023-03-15T23:35:18.307Z,10.05
2023-03-15T23:37:50.429Z,9.85
2023-03-15T23:40:22.940Z,10.05
2023-03-15T23:42:59.322Z,9.73
2023-03-15T23:45:49.724Z,8.93
2023-03-15T23:48:22.359Z,10.43
2023-03-15T23:50:55.900Z,10.40
2023-03-15T23:53:28.037Z,11.05
2023-03-15T23:56:00.144Z,10.15
2023-03-15T23:58:32.481Z,10.82
